createdAt,value
2022-12-31T00:01:15.180Z,19.80
2022-12-31T00:04:17.904Z,17.40
2022-12-31T00:07:20.321Z,17.35
2022-12-31T00:10:23.012Z,18.23
2022-12-31T00:13:25.284Z,17.07
2022-12-31T00:16:33.869Z,16.02
2022-12-31T00:19:36.202Z,14.65
2022-12-31T00:22:38.774Z,16.10
2022-12-31T00:25:41.102Z,16.35
2022-12-31T00:28:44.757Z,15.73
2022-12-31T00:31:47.073Z,13.90
2022-12-31T00:34:49.709Z,15.65
2022-12-31T00:37:53.291Z,14.30
2022-12-31T00:40:55.895Z,15.05
2022-12-31T00:43:58.270Z,14.93
2022-12-31T00:47:00.847Z,12.77
2022-12-31T00:50:03.465Z,14.55
2022-12-31T00:53:06.098Z,14.05
2022-12-31T00:56:13.272Z,14.10
2022-12-31T00:59:15.903Z,13.90
2022-12-31T01:02:18.488Z,13.30
2022-12-31T01:05:21.293Z,14.52
2022-12-31T01:08:23.679Z,13.65
2022-12-31T01:11:29.519Z,14.23
2022-12-31T01:14:33.870Z,13.70
2022-12-31T01:17:36.548Z,13.52
2022-12-31T01:20:41.748Z,14.30
2022-12-31T01:23:44.778Z,15.60
2022-12-31T01:26:47.661Z,15.38
2022-12-31T01:29:50.278Z,14.87
2022-12-31T01:32:52.653Z,15.65
2022-12-31T01:35:55.273Z,16.83
2022-12-31T01:38:59.580Z,16.73
2022-12-31T01:42:02.217Z,18.15
2022-12-31T01:45:10.944Z,17.50
2022-12-31T01:48:17.140Z,16.33
2022-12-31T01:51:21.025Z,16.05
2022-12-31T01:54:25.938Z,16.15
2022-12-31T01:57:28.686Z,15.88
2022-12-31T02:00:32.698Z,14.30
2022-12-31T02:03:36.438Z,14.63
2022-12-31T02:06:47.487Z,17.17
2022-12-31T02:09:50.782Z,15.65
2022-12-31T02:12:53.248Z,15.63
2022-12-31T02:16:25.316Z,13.83
2022-12-31T02:20:01.497Z,13.48
2022-12-31T02:23:29.183Z,13.32
2022-12-31T02:26:44.442Z,14.43
2022-12-31T02:30:17.231Z,14.15
2022-12-31T02:33:38.936Z,14.60
2022-12-31T02:36:46.766Z,15.10
2022-12-31T02:39:49.525Z,15.05
2022-12-31T02:42:55.635Z,14.20
2022-12-31T02:46:08.309Z,14.15
2022-12-31T02:49:20.659Z,14.70
2022-12-31T02:52:38.934Z,13.27
2022-12-31T02:56:16.791Z,16.17
2022-12-31T02:59:53.870Z,14.93
2022-12-31T03:02:58.772Z,16.98
2022-12-31T03:06:04.450Z,14.87
2022-12-31T03:09:13.227Z,15.98
2022-12-31T03:12:35.078Z,14.98
2022-12-31T03:15:38.952Z,14.82
2022-12-31T03:19:00.108Z,15.93
2022-12-31T03:22:21.501Z,15.90
2022-12-31T03:25:35.952Z,15.25
2022-12-31T03:28:40.547Z,17.45
2022-12-31T03:31:42.871Z,16.65
2022-12-31T03:34:45.528Z,16.52
2022-12-31T03:37:49.392Z,18.87
2022-12-31T03:40:53.693Z,17.90
2022-12-31T03:43:56.025Z,17.77
2022-12-31T03:46:58.610Z,16.35
2022-12-31T03:50:00.962Z,17.55
2022-12-31T03:53:03.683Z,17.90
2022-12-31T03:56:06.270Z,16.05
2022-12-31T03:59:08.904Z,19.35
2022-12-31T04:02:11.543Z,17.70
2022-12-31T04:05:14.909Z,17.73
2022-12-31T04:08:17.238Z,17.70
2022-12-31T04:11:21.140Z,16.55
2022-12-31T04:14:23.761Z,17.58
2022-12-31T04:17:27.057Z,16.42
2022-12-31T04:20:29.395Z,15.45
2022-12-31T04:23:32.002Z,16.27
2022-12-31T04:26:34.698Z,18.02
2022-12-31T04:29:37.881Z,16.23
2022-12-31T04:32:40.362Z,15.00
2022-12-31T04:35:42.951Z,16.37
2022-12-31T04:38:45.280Z,16.60
2022-12-31T04:41:48.027Z,17.75
2022-12-31T04:44:50.326Z,16.27
2022-12-31T04:47:52.940Z,17.45
2022-12-31T04:50:55.272Z,17.77
2022-12-31T04:53:58.508Z,17.93
2022-12-31T04:57:00.818Z,18.08
2022-12-31T05:00:03.984Z,17.50
2022-12-31T05:03:06.360Z,17.85
2022-12-31T05:06:14.712Z,19.40
2022-12-31T05:09:17.168Z,18.50
2022-12-31T05:12:20.637Z,19.33
2022-12-31T05:15:22.974Z,20.10
2022-12-31T05:18:25.625Z,18.87
2022-12-31T05:21:27.963Z,20.95
2022-12-31T05:24:30.580Z,20.70
2022-12-31T05:27:33.730Z,21.10
2022-12-31T05:30:37.317Z,20.05
2022-12-31T05:33:39.892Z,17.92
2022-12-31T05:36:42.560Z,19.90
2022-12-31T05:39:44.891Z,19.37
2022-12-31T05:42:47.721Z,19.90
2022-12-31T05:45:50.069Z,20.50
2022-12-31T05:48:52.717Z,19.52
2022-12-31T05:51:55.011Z,20.45
2022-12-31T05:54:57.680Z,19.83
2022-12-31T05:58:00.043Z,19.48
2022-12-31T06:01:02.932Z,20.33
2022-12-31T06:04:06.689Z,19.58
2022-12-31T06:07:08.990Z,20.98
2022-12-31T06:10:11.619Z,19.67
2022-12-31T06:13:13.926Z,21.60
2022-12-31T06:16:16.582Z,20.98
2022-12-31T06:19:18.954Z,19.00
2022-12-31T06:22:21.567Z,18.55
2022-12-31T06:25:23.900Z,19.10
2022-12-31T06:28:26.716Z,18.40
2022-12-31T06:31:29.882Z,17.70
2022-12-31T06:34:32.529Z,17.12
2022-12-31T06:37:35.128Z,16.73
2022-12-31T06:40:38.010Z,17.67
2022-12-31T06:43:42.092Z,19.00
2022-12-31T06:46:44.833Z,19.70
2022-12-31T06:49:47.270Z,19.80
2022-12-31T06:52:49.917Z,18.20
2022-12-31T06:55:52.420Z,17.33
2022-12-31T06:58:55.978Z,19.25
2022-12-31T07:02:10.241Z,18.12
2022-12-31T07:05:27.877Z,18.90
2022-12-31T07:08:48.770Z,19.20
2022-12-31T07:12:00.688Z,18.70
2022-12-31T07:15:10.323Z,17.40
2022-12-31T07:18:38.079Z,18.80
2022-12-31T07:21:41.521Z,18.33
2022-12-31T07:24:45.143Z,19.08
2022-12-31T07:27:59.608Z,18.57
2022-12-31T07:31:09.653Z,21.12
2022-12-31T07:34:11.888Z,21.48
2022-12-31T07:37:37.696Z,20.45
2022-12-31T07:41:11.270Z,19.35
2022-12-31T07:44:38.341Z,18.97
2022-12-31T07:47:41.046Z,18.30
2022-12-31T07:50:44.011Z,17.83
2022-12-31T07:53:46.448Z,20.12
2022-12-31T07:56:50.417Z,18.27
2022-12-31T08:00:03.432Z,18.13
2022-12-31T08:03:23.862Z,21.02
2022-12-31T08:07:02.034Z,22.48
2022-12-31T08:10:17.971Z,23.65
2022-12-31T08:13:21.257Z,22.65
2022-12-31T08:16:24.969Z,22.73
2022-12-31T08:19:32.641Z,22.45
2022-12-31T08:22:37.861Z,22.10
2022-12-31T08:25:52.666Z,20.23
2022-12-31T08:28:54.954Z,20.80
2022-12-31T08:32:09.793Z,19.23
2022-12-31T08:35:27.336Z,19.98
2022-12-31T08:38:53.330Z,20.62
2022-12-31T08:41:58.793Z,19.10
2022-12-31T08:45:23.673Z,23.77
2022-12-31T08:48:36.445Z,21.47
2022-12-31T08:51:39.452Z,21.15
2022-12-31T08:54:42.201Z,20.52
2022-12-31T08:58:05.025Z,20.08
2022-12-31T09:01:08.597Z,20.05
2022-12-31T09:04:21.364Z,20.60
2022-12-31T09:07:38.001Z,19.42
2022-12-31T09:10:54.045Z,19.40
2022-12-31T09:14:08.465Z,19.87
2022-12-31T09:17:38.680Z,19.90
2022-12-31T09:20:43.302Z,19.80
2022-12-31T09:23:47.188Z,20.10
2022-12-31T09:26:49.477Z,22.15
2022-12-31T09:30:08.601Z,20.75
2022-12-31T09:33:33.910Z,20.50
2022-12-31T09:36:46.365Z,21.43
2022-12-31T09:39:49.465Z,21.42
2022-12-31T09:43:10.106Z,21.98
2022-12-31T09:46:50.420Z,23.05
2022-12-31T09:50:18.238Z,24.95
2022-12-31T09:53:29.597Z,22.13
2022-12-31T09:57:02.104Z,24.50
2022-12-31T10:00:20.302Z,25.12
2022-12-31T10:03:29.057Z,22.83
2022-12-31T10:07:04.560Z,21.98
2022-12-31T10:10:18.807Z,23.57
2022-12-31T10:13:33.951Z,22.95
2022-12-31T10:17:13.989Z,23.75
2022-12-31T10:20:22.130Z,21.05
2022-12-31T10:23:49.471Z,23.85
2022-12-31T10:27:18.481Z,21.73
2022-12-31T10:30:24.143Z,24.20
2022-12-31T10:33:44.008Z,23.08
2022-12-31T10:37:07.598Z,23.40
2022-12-31T10:40:36.441Z,23.27
2022-12-31T10:44:05.032Z,23.67
2022-12-31T10:47:44.412Z,24.00
2022-12-31T10:51:20.844Z,25.05
2022-12-31T10:54:32.593Z,25.30
2022-12-31T10:57:58.630Z,25.35
2022-12-31T11:01:10.291Z,22.43
2022-12-31T11:04:12.910Z,24.87
2022-12-31T11:07:41.929Z,27.10
2022-12-31T11:10:53.424Z,25.17
2022-12-31T11:14:28.408Z,25.92
2022-12-31T11:17:36.926Z,24.60
2022-12-31T11:21:00.813Z,26.70
2022-12-31T11:24:25.428Z,27.95
2022-12-31T11:27:53.245Z,26.08
2022-12-31T11:31:28.826Z,26.95
2022-12-31T11:34:37.342Z,26.83
2022-12-31T11:37:48.733Z,27.10
2022-12-31T11:41:39.941Z,31.40
2022-12-31T11:44:49.207Z,26.37
2022-12-31T11:48:30.143Z,25.50
2022-12-31T11:51:50.622Z,26.97
2022-12-31T11:55:18.046Z,27.08
2022-12-31T11:58:20.815Z,26.35
2022-12-31T12:01:59.367Z,26.40
2022-12-31T12:05:10.695Z,27.00
2022-12-31T12:08:15.502Z,24.43
2022-12-31T12:11:22.766Z,25.27
2022-12-31T12:14:33.819Z,25.98
2022-12-31T12:17:37.221Z,26.67
2022-12-31T12:20:41.293Z,28.08
2022-12-31T12:24:14.493Z,26.97
2022-12-31T12:27:22.449Z,27.00
2022-12-31T12:30:27.510Z,25.52
2022-12-31T12:33:40.984Z,25.90
2022-12-31T12:36:47.841Z,26.25
2022-12-31T12:40:29.816Z,28.20
2022-12-31T12:43:37.763Z,27.02
2022-12-31T12:46:53.093Z,27.50
2022-12-31T12:49:56.232Z,28.27
2022-12-31T12:53:30.781Z,27.27
2022-12-31T12:56:36.156Z,28.27
2022-12-31T13:00:04.378Z,28.23
2022-12-31T13:03:30.014Z,28.55
2022-12-31T13:06:57.867Z,28.62
2022-12-31T13:10:06.274Z,28.87
2022-12-31T13:13:35.423Z,30.77
2022-12-31T13:16:59.678Z,29.08
2022-12-31T13:20:26.280Z,28.20
2022-12-31T13:23:51.697Z,27.23
2022-12-31T13:27:20.117Z,28.67
2022-12-31T13:30:31.304Z,27.27
2022-12-31T13:33:39.225Z,30.52
2022-12-31T13:36:44.956Z,28.25
2022-12-31T13:39:57.815Z,28.10
2022-12-31T13:43:14.596Z,28.73
2022-12-31T13:46:41.710Z,27.90
2022-12-31T13:49:51.597Z,27.05
2022-12-31T13:53:04.735Z,27.58
2022-12-31T13:56:15.654Z,28.48
2022-12-31T13:59:31.612Z,27.85
2022-12-31T14:02:45.036Z,26.67
2022-12-31T14:06:02.459Z,28.58
2022-12-31T14:09:06.710Z,28.65
2022-12-31T14:12:31.253Z,28.75
2022-12-31T14:15:44.448Z,27.30
2022-12-31T14:19:18.175Z,24.63
2022-12-31T14:22:36.865Z,25.52
2022-12-31T14:25:57.475Z,28.42
2022-12-31T14:29:08.994Z,26.73
2022-12-31T14:32:49.013Z,26.70
2022-12-31T14:36:15.858Z,24.37
2022-12-31T14:39:34.670Z,25.88
2022-12-31T14:43:03.085Z,25.27
2022-12-31T14:46:21.321Z,25.67
2022-12-31T14:50:23.825Z,25.65
2022-12-31T14:53:28.035Z,24.87
2022-12-31T14:56:45.021Z,25.27
2022-12-31T14:59:58.916Z,24.60
2022-12-31T15:03:25.317Z,24.65
2022-12-31T15:06:56.145Z,23.77
2022-12-31T15:10:23.618Z,23.77
2022-12-31T15:13:26.237Z,23.90
2022-12-31T15:16:48.666Z,24.08
2022-12-31T15:20:30.769Z,23.85
2022-12-31T15:23:38.471Z,23.50
2022-12-31T15:27:07.820Z,22.47
2022-12-31T15:30:46.591Z,23.30
2022-12-31T15:33:55.764Z,25.55
2022-12-31T15:37:01.305Z,23.90
2022-12-31T15:40:25.036Z,23.38
2022-12-31T15:43:35.898Z,23.17
2022-12-31T15:46:41.509Z,22.58
2022-12-31T15:49:47.519Z,23.30
2022-12-31T15:52:59.998Z,23.12
2022-12-31T15:56:03.244Z,22.17
2022-12-31T15:59:12.925Z,21.70
2022-12-31T16:02:25.778Z,22.23
2022-12-31T16:05:28.617Z,20.90
2022-12-31T16:08:35.480Z,23.83
2022-12-31T16:11:41.781Z,21.92
2022-12-31T16:14:46.623Z,22.63
2022-12-31T16:18:02.772Z,22.70
2022-12-31T16:21:05.634Z,22.50
2022-12-31T16:24:32.164Z,22.23
2022-12-31T16:27:35.954Z,22.27
2022-12-31T16:30:38.600Z,22.40
2022-12-31T16:33:40.925Z,23.48
2022-12-31T16:36:54.239Z,24.25
2022-12-31T16:39:56.596Z,24.70
2022-12-31T16:42:59.979Z,24.15
2022-12-31T16:46:10.456Z,23.07
2022-12-31T16:49:20.270Z,23.87
2022-12-31T16:52:44.556Z,24.75
2022-12-31T16:55:55.031Z,25.48
2022-12-31T16:59:04.046Z,25.23
2022-12-31T17:02:23.011Z,24.67
2022-12-31T17:05:27.050Z,24.30
2022-12-31T17:08:40.069Z,24.70
2022-12-31T17:11:48.275Z,23.87
2022-12-31T17:14:51.787Z,25.58
2022-12-31T17:18:01.248Z,25.43
2022-12-31T17:21:09.718Z,24.90
2022-12-31T17:24:13.576Z,25.92
2022-12-31T17:27:16.842Z,26.48
2022-12-31T17:30:37.024Z,28.58
2022-12-31T17:33:39.861Z,26.53
2022-12-31T17:36:54.421Z,26.00
2022-12-31T17:43:25.109Z,25.90
2022-12-31T17:46:29.853Z,30.48
2022-12-31T17:49:33.267Z,28.63
2022-12-31T17:52:35.906Z,31.50
2022-12-31T17:55:38.920Z,33.95
2022-12-31T17:58:52.485Z,33.28
2022-12-31T18:01:57.353Z,32.92
2022-12-31T18:05:00.007Z,33.60
2022-12-31T18:08:02.431Z,33.55
2022-12-31T18:11:05.388Z,33.42
2022-12-31T18:14:08.389Z,35.20
2022-12-31T18:17:16.992Z,32.95
2022-12-31T18:20:19.531Z,32.97
2022-12-31T18:23:35.270Z,32.50
2022-12-31T18:26:37.584Z,29.70
2022-12-31T18:29:40.194Z,34.58
2022-12-31T18:32:44.308Z,36.40
2022-12-31T18:36:08.330Z,34.20
2022-12-31T18:39:09.876Z,34.85
2022-12-31T18:42:14.229Z,35.35
2022-12-31T18:45:19.451Z,37.40
2022-12-31T18:48:22.136Z,37.90
2022-12-31T18:51:31.248Z,35.20
2022-12-31T18:54:35.835Z,39.13
2022-12-31T18:57:38.144Z,38.78
2022-12-31T19:00:41.117Z,34.70
2022-12-31T19:03:43.452Z,36.85
2022-12-31T19:06:48.507Z,35.63
2022-12-31T19:09:56.446Z,36.75
2022-12-31T19:13:01.129Z,39.63
2022-12-31T19:16:03.608Z,39.08
2022-12-31T19:19:08.667Z,40.67
2022-12-31T19:22:15.443Z,39.13
2022-12-31T19:25:21.644Z,40.08
2022-12-31T19:28:27.437Z,40.15
2022-12-31T19:31:30.082Z,38.80
2022-12-31T19:34:32.503Z,39.20
2022-12-31T19:37:35.174Z,39.07
2022-12-31T19:40:37.526Z,42.60
2022-12-31T19:43:40.140Z,44.22
2022-12-31T19:46:42.625Z,40.70
2022-12-31T19:49:45.296Z,42.92
2022-12-31T19:52:48.858Z,45.33
2022-12-31T19:55:52.527Z,48.40
2022-12-31T19:58:54.848Z,50.28
2022-12-31T20:01:57.625Z,50.28
2022-12-31T20:05:00.382Z,47.00
2022-12-31T20:08:02.745Z,47.40
2022-12-31T20:11:11.080Z,47.67
2022-12-31T20:14:13.449Z,45.85
2022-12-31T20:17:16.165Z,49.47
2022-12-31T20:20:18.643Z,45.75
2022-12-31T20:23:21.222Z,49.03
2022-12-31T20:26:24.618Z,50.58
2022-12-31T20:29:27.376Z,52.78
2022-12-31T20:32:29.666Z,50.55
2022-12-31T20:35:32.379Z,52.28
2022-12-31T20:38:35.086Z,48.80
2022-12-31T20:41:37.718Z,50.78
2022-12-31T20:44:40.092Z,57.22
2022-12-31T20:47:42.813Z,56.60
2022-12-31T20:50:54.422Z,56.45
2022-12-31T20:53:59.764Z,57.57
2022-12-31T20:57:02.167Z,54.90
2022-12-31T21:00:05.484Z,58.80
2022-12-31T21:03:23.796Z,55.45
2022-12-31T21:06:31.253Z,54.90
2022-12-31T21:09:33.919Z,56.57
2022-12-31T21:12:46.446Z,79.45
2022-12-31T21:15:53.884Z,69.45
2022-12-31T21:18:56.582Z,72.62
2022-12-31T21:21:58.914Z,61.70
2022-12-31T21:25:02.557Z,59.40
2022-12-31T21:28:05.152Z,55.70
2022-12-31T21:31:08.875Z,58.92
2022-12-31T21:34:11.384Z,56.00
2022-12-31T21:37:15.051Z,52.78
2022-12-31T21:40:17.481Z,53.30
2022-12-31T21:43:20.449Z,54.22
2022-12-31T21:46:23.142Z,50.63
2022-12-31T21:49:25.757Z,49.97
2022-12-31T21:52:30.422Z,47.90
2022-12-31T21:55:52.438Z,47.13
2022-12-31T21:59:15.309Z,44.45
2022-12-31T22:02:36.831Z,48.63
2022-12-31T22:05:46.907Z,47.60
2022-12-31T22:08:52.493Z,48.33
2022-12-31T22:11:55.149Z,47.93
2022-12-31T22:15:15.256Z,46.90
2022-12-31T22:18:18.949Z,46.70
2022-12-31T22:21:23.444Z,44.75
2022-12-31T22:24:26.104Z,44.67
2022-12-31T22:27:30.058Z,44.03
2022-12-31T22:30:34.320Z,46.03
2022-12-31T22:33:36.748Z,44.38
2022-12-31T22:36:39.383Z,45.35
2022-12-31T22:39:44.193Z,46.65
2022-12-31T22:42:47.729Z,47.70
2022-12-31T22:45:50.098Z,43.08
2022-12-31T22:48:54.522Z,47.33
2022-12-31T22:52:00.739Z,43.60
2022-12-31T22:55:06.045Z,43.22
2022-12-31T22:58:08.354Z,43.50
2022-12-31T23:01:22.950Z,46.92
2022-12-31T23:04:25.344Z,51.10
2022-12-31T23:07:28.002Z,53.75
2022-12-31T23:10:48.842Z,71.30
2022-12-31T23:14:09.940Z,54.23
2022-12-31T23:17:41.583Z,59.35
2022-12-31T23:21:03.210Z,73.05
2022-12-31T23:24:07.776Z,81.28
2022-12-31T23:27:14.431Z,84.30
2022-12-31T23:30:16.941Z,85.53
2022-12-31T23:33:25.462Z,87.05
2022-12-31T23:36:27.816Z,80.78
2022-12-31T23:39:30.835Z,75.57
2022-12-31T23:42:33.241Z,85.07
2022-12-31T23:45:36.785Z,79.87
2022-12-31T23:48:39.236Z,72.43
2022-12-31T23:51:41.903Z,67.32
2022-12-31T23:54:44.259Z,65.05
2022-12-31T23:57:46.890Z,64.72
